Pagrindinis puslapis
METAR-TAF:

METAR-TAF

Oro uostai :

Guangdžou, Kinija

platuma: 23-10N, ilguma: 113-20E, Aukštis: 8 m

Dabartinis oras

Ataskaita buvo paskelbta 19 minutes, ne 17:30 UTC
Vėjas 6 kt iš Šiaurės/Šiaurės Vakarų
Temperatūra 15°C
Drėgmė 82%
Slėgis 1015 hPa
Matomumas 10 km arba daugiau
Apsiniaukę ne aukštis 2500 ft
lietus

METAR: ZGGG 311730Z 33003MPS 9999 -RA OVC025 15/12 Q1015 NOSIG

Laikas: 01:49 (17:49 UTC)

Prognozė

Ataskaita buvo paskelbta 2 valandos ir 42 minutes, ne 15:07 UTC
Prognozė galioja nuo 31 metu 18 UTC su 01 metu 18 UTC
Vėjas 6 kt iš Šiaurės
Matomumas: 8000 m
Apsiniaukę ne aukštis 3000 ft
Laikinai
nuo 01 metu 09 UTC su 01 metu 15 UTC
Matomumas: 3500 m
Išsisklaidę debesys ne aukštis 1100 ft
Mažai debesys ne aukštis 3000 ft, Liūtiniai kamuoliniai debesys.
Su prošvaistėmis ne aukštis 3300 ft
lietus

TAF: ZGGG 311507Z 3118/0118 01003MPS 8000 OVC030 TX18/0107Z TN13/3122Z TEMPO 0109/0115 3500 SHRA SCT011 FEW030CB BKN033

Orai ataskaitas ir orų prognozės (METAR, TAF).

turimą stotys yra geltonos ir raudonos taškus žemėlapyje.

Perkelti pele per norėdami pamatyti stoties vardą.

Tada spustelėkite, norėdami matyti oro stebėjimo ir prognozės.

Norėdami pakeisti žemėlapį: spustelėkite ant žalios mygtukų su juodo kryžiaus žemyn,; žalią mygtuką su brūkšneliu, jei norite nutolinti; arba žalių rodyklių gretimoms žemėlapius.


METAR-TAF: